sensor_id;sensor_type;location;lat;lon;timestamp;pressure;altitude;pressure_sealevel;temperature;humidity
70314;BME280;57725;47.526;18.986;2022-10-16T00:01:11;100270.03;;;13.68;92.25
70314;BME280;57725;47.526;18.986;2022-10-16T00:03:41;100265.72;;;13.67;92.39
70314;BME280;57725;47.526;18.986;2022-10-16T00:06:07;100259.53;;;13.68;92.26
70314;BME280;57725;47.526;18.986;2022-10-16T00:08:33;100254.34;;;13.66;92.08
70314;BME280;57725;47.526;18.986;2022-10-16T00:11:10;100257.75;;;13.68;92.16
70314;BME280;57725;47.526;18.986;2022-10-16T00:13:38;100256.91;;;13.68;92.17
70314;BME280;57725;47.526;18.986;2022-10-16T00:16:04;100251.66;;;13.68;92.26
70314;BME280;57725;47.526;18.986;2022-10-16T00:18:32;100260.38;;;13.68;92.12
70314;BME280;57725;47.526;18.986;2022-10-16T00:21:26;100258.69;;;13.67;92.25
70314;BME280;57725;47.526;18.986;2022-10-16T00:23:58;100273.53;;;13.68;92.22
70314;BME280;57725;47.526;18.986;2022-10-16T00:26:25;100272.66;;;13.68;92.25
70314;BME280;57725;47.526;18.986;2022-10-16T00:28:51;100279.69;;;13.67;92.33
70314;BME280;57725;47.526;18.986;2022-10-16T00:31:18;100275.28;;;13.68;92.14
70314;BME280;57725;47.526;18.986;2022-10-16T00:33:44;100274.38;;;13.69;92.15
70314;BME280;57725;47.526;18.986;2022-10-16T00:36:18;100292.75;;;13.69;92.24
70314;BME280;57725;47.526;18.986;2022-10-16T00:38:44;100284.03;;;13.68;92.23
70314;BME280;57725;47.526;18.986;2022-10-16T00:41:15;100284.03;;;13.68;92.14
70314;BME280;57725;47.526;18.986;2022-10-16T00:43:43;100291.06;;;13.68;92.21
70314;BME280;57725;47.526;18.986;2022-10-16T00:48:38;100288.44;;;13.68;92.14
70314;BME280;57725;47.526;18.986;2022-10-16T00:51:09;100279.69;;;13.67;92.16
70314;BME280;57725;47.526;18.986;2022-10-16T00:53:35;100279.63;;;13.69;92.17
70314;BME280;57725;47.526;18.986;2022-10-16T00:56:03;100298.88;;;13.69;92.24
70314;BME280;57725;47.526;18.986;2022-10-16T00:58:31;100296.31;;;13.68;92.09
70314;BME280;57725;47.526;18.986;2022-10-16T01:00:56;100291.91;;;13.68;92.33
70314;BME280;57725;47.526;18.986;2022-10-16T01:03:31;100300.66;;;13.69;92.11
70314;BME280;57725;47.526;18.986;2022-10-16T01:06:12;100302.41;;;13.68;92.09
70314;BME280;57725;47.526;18.986;2022-10-16T01:14:47;100293.69;;;13.68;92.15
70314;BME280;57725;47.526;18.986;2022-10-16T01:17:23;100303.34;;;13.67;92.14
70314;BME280;57725;47.526;18.986;2022-10-16T01:22:41;100304.19;;;13.68;92.25
70314;BME280;57725;47.526;18.986;2022-10-16T01:25:12;100310.31;;;13.68;92.15
70314;BME280;57725;47.526;18.986;2022-10-16T01:27:43;100317.34;;;13.68;92.22
70314;BME280;57725;47.526;18.986;2022-10-16T01:30:24;100311.16;;;13.69;92.36
70314;BME280;57725;47.526;18.986;2022-10-16T01:33:12;100311.16;;;13.69;92.20
70314;BME280;57725;47.526;18.986;2022-10-16T01:35:43;100305.91;;;13.69;92.11
70314;BME280;57725;47.526;18.986;2022-10-16T01:38:25;100312.94;;;13.68;92.31
70314;BME280;57725;47.526;18.986;2022-10-16T01:40:58;100308.53;;;13.69;92.29
70314;BME280;57725;47.526;18.986;2022-10-16T01:43:32;100308.53;;;13.69;92.22
70314;BME280;57725;47.526;18.986;2022-10-16T01:45:59;100319.03;;;13.69;92.15
70314;BME280;57725;47.526;18.986;2022-10-16T01:48:25;100324.28;;;13.69;92.28
70314;BME280;57725;47.526;18.986;2022-10-16T01:50:57;100322.59;;;13.68;92.21
70314;BME280;57725;47.526;18.986;2022-10-16T01:53:24;100326.91;;;13.69;92.06
70314;BME280;57725;47.526;18.986;2022-10-16T01:55:54;100322.59;;;13.68;92.08
70314;BME280;57725;47.526;18.986;2022-10-16T01:58:23;100335.66;;;13.69;92.17
70314;BME280;57725;47.526;18.986;2022-10-16T02:00:52;100341.84;;;13.68;92.29
70314;BME280;57725;47.526;18.986;2022-10-16T02:03:21;100338.34;;;13.68;92.15
70314;BME280;57725;47.526;18.986;2022-10-16T02:05:50;100337.50;;;13.67;92.16
70314;BME280;57725;47.526;18.986;2022-10-16T02:08:17;100345.31;;;13.69;92.13
70314;BME280;57725;47.526;18.986;2022-10-16T02:10:43;100338.34;;;13.68;92.22
70314;BME280;57725;47.526;18.986;2022-10-16T02:13:11;100341.84;;;13.68;92.06
70314;BME280;57725;47.526;18.986;2022-10-16T02:15:38;100338.28;;;13.69;92.19
70314;BME280;57725;47.526;18.986;2022-10-16T02:18:07;100338.34;;;13.68;92.10
70314;BME280;57725;47.526;18.986;2022-10-16T02:21:07;100340.97;;;13.68;92.14
70314;BME280;57725;47.526;18.986;2022-10-16T02:26:13;100340.06;;;13.69;92.08
70314;BME280;57725;47.526;18.986;2022-10-16T02:28:45;100340.97;;;13.68;92.27
70314;BME280;57725;47.526;18.986;2022-10-16T02:31:17;100343.59;;;13.68;92.12
70314;BME280;57725;47.526;18.986;2022-10-16T02:33:47;100350.63;;;13.67;92.22
70314;BME280;57725;47.526;18.986;2022-10-16T02:36:12;100341.03;;;13.66;92.18
70314;BME280;57725;47.526;18.986;2022-10-16T02:38:40;100352.34;;;13.68;92.21
70314;BME280;57725;47.526;18.986;2022-10-16T02:41:08;100346.25;;;13.68;92.17
70314;BME280;57725;47.526;18.986;2022-10-16T02:43:33;100351.56;;;13.66;92.09
70314;BME280;57725;47.526;18.986;2022-10-16T02:46:00;100348.06;;;13.66;91.95
70314;BME280;57725;47.526;18.986;2022-10-16T02:48:25;100354.19;;;13.66;92.37
70314;BME280;57725;47.526;18.986;2022-10-16T02:50:53;100358.53;;;13.67;92.15
70314;BME280;57725;47.526;18.986;2022-10-16T02:53:18;100357.66;;;13.67;92.18
70314;BME280;57725;47.526;18.986;2022-10-16T02:55:44;100356.81;;;13.66;92.00
70314;BME280;57725;47.526;18.986;2022-10-16T02:58:09;100361.16;;;13.67;92.22
70314;BME280;57725;47.526;18.986;2022-10-16T03:00:34;100365.53;;;13.67;92.16
70314;BME280;57725;47.526;18.986;2022-10-16T03:03:00;100361.22;;;13.66;92.04
70314;BME280;57725;47.526;18.986;2022-10-16T03:05:25;100363.78;;;13.67;92.14
70314;BME280;57725;47.526;18.986;2022-10-16T03:07:52;100367.31;;;13.66;92.12
70314;BME280;57725;47.526;18.986;2022-10-16T03:10:18;100363.91;;;13.64;92.04
70314;BME280;57725;47.526;18.986;2022-10-16T03:12:43;100368.19;;;13.67;92.27
70314;BME280;57725;47.526;18.986;2022-10-16T03:15:09;100368.19;;;13.67;91.76
70314;BME280;57725;47.526;18.986;2022-10-16T03:17:35;100381.38;;;13.65;91.96
70314;BME280;57725;47.526;18.986;2022-10-16T03:20:00;100383.09;;;13.66;92.04
70314;BME280;57725;47.526;18.986;2022-10-16T03:22:28;100380.47;;;13.66;92.01
70314;BME280;57725;47.526;18.986;2022-10-16T03:24:53;100382.31;;;13.64;92.49
70314;BME280;57725;47.526;18.986;2022-10-16T03:27:25;100384.00;;;13.65;92.03
70314;BME280;57725;47.526;18.986;2022-10-16T03:29:52;100385.78;;;13.65;92.16
70314;BME280;57725;47.526;18.986;2022-10-16T03:32:20;100392.81;;;13.64;92.15
70314;BME280;57725;47.526;18.986;2022-10-16T03:34:49;100398.06;;;13.64;92.06
70314;BME280;57725;47.526;18.986;2022-10-16T03:37:14;100398.91;;;13.65;92.30
70314;BME280;57725;47.526;18.986;2022-10-16T03:39:42;100398.97;;;13.63;92.12
70314;BME280;57725;47.526;18.986;2022-10-16T03:42:11;100397.22;;;13.64;92.02
70314;BME280;57725;47.526;18.986;2022-10-16T03:44:38;100396.34;;;13.63;91.95
70314;BME280;57725;47.526;18.986;2022-10-16T03:47:04;100398.97;;;13.63;91.97
70314;BME280;57725;47.526;18.986;2022-10-16T03:49:29;100398.97;;;13.63;92.01
70314;BME280;57725;47.526;18.986;2022-10-16T03:51:54;100400.75;;;13.63;92.21
70314;BME280;57725;47.526;18.986;2022-10-16T03:54:20;100401.63;;;13.63;91.92
70314;BME280;57725;47.526;18.986;2022-10-16T03:56:47;100403.38;;;13.63;91.97
70314;BME280;57725;47.526;18.986;2022-10-16T03:59:12;100406.88;;;13.63;92.01
70314;BME280;57725;47.526;18.986;2022-10-16T04:01:40;100400.84;;;13.61;92.01
70314;BME280;57725;47.526;18.986;2022-10-16T04:04:08;100406.94;;;13.62;92.02
70314;BME280;57725;47.526;18.986;2022-10-16T04:06:33;100408.75;;;13.61;91.95
70314;BME280;57725;47.526;18.986;2022-10-16T04:08:59;100410.50;;;13.61;92.11
70314;BME280;57725;47.526;18.986;2022-10-16T04:11:24;100409.66;;;13.60;91.97
70314;BME280;57725;47.526;18.986;2022-10-16T04:13:52;100424.50;;;13.61;92.04
70314;BME280;57725;47.526;18.986;2022-10-16T04:16:17;100424.50;;;13.61;92.10
70314;BME280;57725;47.526;18.986;2022-10-16T04:18:43;100421.03;;;13.61;92.11
70314;BME280;57725;47.526;18.986;2022-10-16T04:21:08;100417.59;;;13.59;91.97
70314;BME280;57725;47.526;18.986;2022-10-16T04:23:34;100413.22;;;13.59;91.77
70314;BME280;57725;47.526;18.986;2022-10-16T04:25:59;100414.06;;;13.60;91.93
70314;BME280;57725;47.526;18.986;2022-10-16T04:28:27;100421.09;;;13.59;92.06
70314;BME280;57725;47.526;18.986;2022-10-16T04:30:55;100428.06;;;13.60;92.00
70314;BME280;57725;47.526;18.986;2022-10-16T04:33:20;100423.72;;;13.59;92.02
70314;BME280;57725;47.526;18.986;2022-10-16T04:35:46;100429.88;;;13.58;91.90
70314;BME280;57725;47.526;18.986;2022-10-16T04:38:11;100425.50;;;13.59;91.61
70314;BME280;57725;47.526;18.986;2022-10-16T04:40:37;100422.00;;;13.58;91.95
70314;BME280;57725;47.526;18.986;2022-10-16T04:43:03;100431.66;;;13.58;91.89
70314;BME280;57725;47.526;18.986;2022-10-16T04:45:29;100424.72;;;13.57;92.09
70314;BME280;57725;47.526;18.986;2022-10-16T04:47:57;100424.72;;;13.57;91.97
70314;BME280;57725;47.526;18.986;2022-10-16T04:50:23;100431.66;;;13.58;91.79
70314;BME280;57725;47.526;18.986;2022-10-16T04:52:50;100435.22;;;13.57;92.07
70314;BME280;57725;47.526;18.986;2022-10-16T04:55:16;100436.06;;;13.57;92.03
70314;BME280;57725;47.526;18.986;2022-10-16T04:57:43;100439.63;;;13.56;92.13
70314;BME280;57725;47.526;18.986;2022-10-16T05:00:09;100443.16;;;13.55;91.93
70314;BME280;57725;47.526;18.986;2022-10-16T05:02:35;100434.44;;;13.55;91.96
70314;BME280;57725;47.526;18.986;2022-10-16T05:05:02;100429.09;;;13.56;91.90
70314;BME280;57725;47.526;18.986;2022-10-16T05:07:28;100434.44;;;13.55;91.99
70314;BME280;57725;47.526;18.986;2022-10-16T05:09:53;100439.75;;;13.53;91.98
70314;BME280;57725;47.526;18.986;2022-10-16T05:12:19;100439.69;;;13.55;91.86
70314;BME280;57725;47.526;18.986;2022-10-16T05:14:44;100440.59;;;13.54;91.86
70314;BME280;57725;47.526;18.986;2022-10-16T05:17:09;100437.97;;;13.54;91.93
70314;BME280;57725;47.526;18.986;2022-10-16T05:19:35;100441.53;;;13.53;91.90
70314;BME280;57725;47.526;18.986;2022-10-16T05:22:00;100445.00;;;13.53;91.78
70314;BME280;57725;47.526;18.986;2022-10-16T05:24:26;100454.66;;;13.53;91.80
70314;BME280;57725;47.526;18.986;2022-10-16T05:26:51;100465.16;;;13.53;91.83
70314;BME280;57725;47.526;18.986;2022-10-16T05:29:17;100464.31;;;13.52;92.03
70314;BME280;57725;47.526;18.986;2022-10-16T05:31:42;100467.78;;;13.53;92.03
70314;BME280;57725;47.526;18.986;2022-10-16T05:34:10;100457.34;;;13.51;91.92
70314;BME280;57725;47.526;18.986;2022-10-16T05:36:35;100475.72;;;13.51;92.00
70314;BME280;57725;47.526;18.986;2022-10-16T05:39:03;100471.41;;;13.50;92.00
70314;BME280;57725;47.526;18.986;2022-10-16T05:41:28;100468.78;;;13.50;91.92
70314;BME280;57725;47.526;18.986;2022-10-16T05:43:54;100460.88;;;13.50;91.89
70314;BME280;57725;47.526;18.986;2022-10-16T05:46:21;100466.16;;;13.50;92.00
70314;BME280;57725;47.526;18.986;2022-10-16T05:48:47;100467.09;;;13.49;92.04
70314;BME280;57725;47.526;18.986;2022-10-16T05:51:13;100469.72;;;13.49;91.99
70314;BME280;57725;47.526;18.986;2022-10-16T05:53:44;100468.94;;;13.47;92.04
70314;BME280;57725;47.526;18.986;2022-10-16T05:56:10;100472.41;;;13.48;92.02
70314;BME280;57725;47.526;18.986;2022-10-16T05:58:37;100475.91;;;13.48;91.95
70314;BME280;57725;47.526;18.986;2022-10-16T06:01:16;100472.41;;;13.48;91.78
70314;BME280;57725;47.526;18.986;2022-10-16T06:03:45;100481.22;;;13.47;91.83
70314;BME280;57725;47.526;18.986;2022-10-16T06:06:17;100492.56;;;13.47;91.89
70314;BME280;57725;47.526;18.986;2022-10-16T06:08:43;100495.19;;;13.47;91.95
70314;BME280;57725;47.526;18.986;2022-10-16T06:11:12;100492.56;;;13.47;91.96
70314;BME280;57725;47.526;18.986;2022-10-16T06:13:38;100497.81;;;13.47;91.86
70314;BME280;57725;47.526;18.986;2022-10-16T06:16:07;100496.97;;;13.47;91.86
70314;BME280;57725;47.526;18.986;2022-10-16T06:18:32;100498.81;;;13.45;91.76
70314;BME280;57725;47.526;18.986;2022-10-16T06:20:58;100499.66;;;13.45;91.83
70314;BME280;57725;47.526;18.986;2022-10-16T06:23:24;100506.63;;;13.46;91.88
70314;BME280;57725;47.526;18.986;2022-10-16T06:25:50;100506.69;;;13.45;92.10
70314;BME280;57725;47.526;18.986;2022-10-16T06:28:16;100510.16;;;13.45;91.84
70314;BME280;57725;47.526;18.986;2022-10-16T06:30:44;100518.97;;;13.44;91.96
70314;BME280;57725;47.526;18.986;2022-10-16T06:33:12;100519.81;;;13.45;92.19
70314;BME280;57725;47.526;18.986;2022-10-16T06:35:38;100524.22;;;13.44;91.90
70314;BME280;57725;47.526;18.986;2022-10-16T06:38:03;100531.25;;;13.44;92.12
70314;BME280;57725;47.526;18.986;2022-10-16T06:40:29;100529.47;;;13.44;91.90
70314;BME280;57725;47.526;18.986;2022-10-16T06:42:56;100534.72;;;13.44;91.94
70314;BME280;57725;47.526;18.986;2022-10-16T06:45:22;100532.16;;;13.43;92.26
70314;BME280;57725;47.526;18.986;2022-10-16T06:47:49;100533.00;;;13.43;92.13
70314;BME280;57725;47.526;18.986;2022-10-16T06:50:15;100530.38;;;13.43;92.36
70314;BME280;57725;47.526;18.986;2022-10-16T06:52:42;100536.50;;;13.44;91.99
70314;BME280;57725;47.526;18.986;2022-10-16T06:55:10;100542.66;;;13.43;92.06
70314;BME280;57725;47.526;18.986;2022-10-16T06:57:35;100540.09;;;13.41;92.06
70314;BME280;57725;47.526;18.986;2022-10-16T07:00:03;100543.53;;;13.43;92.19
70314;BME280;57725;47.526;18.986;2022-10-16T07:02:29;100552.31;;;13.42;92.27
70314;BME280;57725;47.526;18.986;2022-10-16T07:04:54;100557.56;;;13.42;91.94
70314;BME280;57725;47.526;18.986;2022-10-16T07:07:23;100552.31;;;13.42;92.17
70314;BME280;57725;47.526;18.986;2022-10-16T07:09:51;100552.38;;;13.40;92.17
70314;BME280;57725;47.526;18.986;2022-10-16T07:12:17;100561.13;;;13.41;92.33
70314;BME280;57725;47.526;18.986;2022-10-16T07:14:42;100563.75;;;13.41;92.07
70314;BME280;57725;47.526;18.986;2022-10-16T07:17:08;100566.38;;;13.41;92.24
70314;BME280;57725;47.526;18.986;2022-10-16T07:19:33;100568.13;;;13.40;92.34
70314;BME280;57725;47.526;18.986;2022-10-16T07:22:01;100569.91;;;13.40;92.23
70314;BME280;57725;47.526;18.986;2022-10-16T07:24:28;100568.13;;;13.40;92.14
70314;BME280;57725;47.526;18.986;2022-10-16T07:26:53;100572.53;;;13.40;92.28
70314;BME280;57725;47.526;18.986;2022-10-16T07:29:21;100578.72;;;13.39;92.12
70314;BME280;57725;47.526;18.986;2022-10-16T07:31:48;100577.78;;;13.40;92.35
70314;BME280;57725;47.526;18.986;2022-10-16T07:34:15;100583.03;;;13.40;92.24
70314;BME280;57725;47.526;18.986;2022-10-16T07:36:41;100589.22;;;13.39;92.14
70314;BME280;57725;47.526;18.986;2022-10-16T07:39:09;100591.84;;;13.39;92.20
70314;BME280;57725;47.526;18.986;2022-10-16T07:41:37;100593.53;;;13.40;92.30
70314;BME280;57725;47.526;18.986;2022-10-16T07:44:03;100584.81;;;13.39;92.33
70314;BME280;57725;47.526;18.986;2022-10-16T07:46:29;100589.22;;;13.39;92.42
70314;BME280;57725;47.526;18.986;2022-10-16T07:48:54;100587.53;;;13.38;92.30
70314;BME280;57725;47.526;18.986;2022-10-16T07:51:24;100590.16;;;13.38;92.32
70314;BME280;57725;47.526;18.986;2022-10-16T07:53:52;100595.31;;;13.39;92.33
70314;BME280;57725;47.526;18.986;2022-10-16T07:56:19;100595.31;;;13.39;92.36
70314;BME280;57725;47.526;18.986;2022-10-16T07:58:47;100591.06;;;13.37;92.34
70314;BME280;57725;47.526;18.986;2022-10-16T08:01:15;100607.59;;;13.39;92.27
70314;BME280;57725;47.526;18.986;2022-10-16T08:03:46;100612.00;;;13.38;92.45
70314;BME280;57725;47.526;18.986;2022-10-16T08:06:12;100612.84;;;13.39;92.42
70314;BME280;57725;47.526;18.986;2022-10-16T08:08:37;100611.22;;;13.36;92.39
70314;BME280;57725;47.526;18.986;2022-10-16T08:11:03;100620.72;;;13.39;92.34
70314;BME280;57725;47.526;18.986;2022-10-16T08:13:31;100618.97;;;13.39;92.32
70314;BME280;57725;47.526;18.986;2022-10-16T08:15:57;100621.69;;;13.38;92.29
70314;BME280;57725;47.526;18.986;2022-10-16T08:18:22;100625.97;;;13.39;92.29
70314;BME280;57725;47.526;18.986;2022-10-16T08:20:55;100633.09;;;13.37;92.24
70314;BME280;57725;47.526;18.986;2022-10-16T08:23:21;100632.19;;;13.38;92.41
70314;BME280;57725;47.526;18.986;2022-10-16T08:25:46;100639.19;;;13.37;92.29
70314;BME280;57725;47.526;18.986;2022-10-16T08:28:12;100640.88;;;13.38;92.28
70314;BME280;57725;47.526;18.986;2022-10-16T08:30:37;100643.59;;;13.37;92.40
70314;BME280;57725;47.526;18.986;2022-10-16T08:33:03;100649.72;;;13.37;92.28
70314;BME280;57725;47.526;18.986;2022-10-16T08:35:29;100647.00;;;13.39;92.51
70314;BME280;57725;47.526;18.986;2022-10-16T08:37:59;100642.69;;;13.38;92.33
70314;BME280;57725;47.526;18.986;2022-10-16T08:40:29;100643.59;;;13.37;92.36
70314;BME280;57725;47.526;18.986;2022-10-16T08:48:53;100640.97;;;13.37;92.46
70314;BME280;57725;47.526;18.986;2022-10-16T08:51:34;100644.47;;;13.37;92.46
70314;BME280;57725;47.526;18.986;2022-10-16T08:54:22;100643.59;;;13.37;92.33
70314;BME280;57725;47.526;18.986;2022-10-16T08:56:55;100646.22;;;13.37;92.36
70314;BME280;57725;47.526;18.986;2022-10-16T08:59:22;100648.84;;;13.37;92.31
70314;BME280;57725;47.526;18.986;2022-10-16T09:01:51;100647.16;;;13.36;92.37
70314;BME280;57725;47.526;18.986;2022-10-16T09:04:44;100654.97;;;13.37;92.48
70314;BME280;57725;47.526;18.986;2022-10-16T09:23:43;100658.34;;;13.39;92.42
70314;BME280;57725;47.526;18.986;2022-10-16T09:26:13;100653.09;;;13.39;92.45
70314;BME280;57725;47.526;18.986;2022-10-16T09:28:39;100659.28;;;13.38;92.47
70314;BME280;57725;47.526;18.986;2022-10-16T09:31:07;100660.97;;;13.39;92.30
70314;BME280;57725;47.526;18.986;2022-10-16T09:33:37;100660.06;;;13.40;92.32
70314;BME280;57725;47.526;18.986;2022-10-16T09:36:05;100653.09;;;13.39;92.54
70314;BME280;57725;47.526;18.986;2022-10-16T09:38:33;100654.81;;;13.40;92.46
70314;BME280;57725;47.526;18.986;2022-10-16T09:41:01;100660.13;;;13.39;92.31
70314;BME280;57725;47.526;18.986;2022-10-16T09:43:40;100662.69;;;13.40;92.36
70314;BME280;57725;47.526;18.986;2022-10-16T09:46:30;100670.56;;;13.40;92.50
70314;BME280;57725;47.526;18.986;2022-10-16T09:49:00;100672.28;;;13.41;92.39
70314;BME280;57725;47.526;18.986;2022-10-16T09:54:12;100683.63;;;13.42;92.33
70314;BME280;57725;47.526;18.986;2022-10-16T09:56:40;100676.63;;;13.43;92.31
70314;BME280;57725;47.526;18.986;2022-10-16T09:59:18;100681.00;;;13.42;92.42
70314;BME280;57725;47.526;18.986;2022-10-16T10:01:52;100689.75;;;13.43;92.43
70314;BME280;57725;47.526;18.986;2022-10-16T10:04:18;100681.00;;;13.42;92.43
70314;BME280;57725;47.526;18.986;2022-10-16T10:06:55;100676.63;;;13.43;92.30
70314;BME280;57725;47.526;18.986;2022-10-16T10:11:57;100658.16;;;13.44;92.38
70314;BME280;57725;47.526;18.986;2022-10-16T10:14:27;100659.94;;;13.44;92.53
70314;BME280;57725;47.526;18.986;2022-10-16T10:30:37;100656.34;;;13.46;92.34
70314;BME280;57725;47.526;18.986;2022-10-16T10:38:28;100649.31;;;13.47;92.40
70314;BME280;57725;47.526;18.986;2022-10-16T10:46:35;100647.53;;;13.47;92.15
70314;BME280;57725;47.526;18.986;2022-10-16T11:01:01;100653.59;;;13.49;92.21
70314;BME280;57725;47.526;18.986;2022-10-16T11:03:41;100654.44;;;13.50;92.31
70314;BME280;57725;47.526;18.986;2022-10-16T11:06:12;100655.28;;;13.50;92.28
70314;BME280;57725;47.526;18.986;2022-10-16T11:08:53;100647.38;;;13.50;92.29
70314;BME280;57725;47.526;18.986;2022-10-16T11:11:26;100643.84;;;13.51;92.35
70314;BME280;57725;47.526;18.986;2022-10-16T11:16:30;100640.38;;;13.51;92.15
70314;BME280;57725;47.526;18.986;2022-10-16T11:21:49;100636.81;;;13.52;92.27
70314;BME280;57725;47.526;18.986;2022-10-16T11:24:22;100635.97;;;13.51;92.29
70314;BME280;57725;47.526;18.986;2022-10-16T11:26:49;100630.66;;;13.53;92.10
70314;BME280;57725;47.526;18.986;2022-10-16T11:29:26;100633.22;;;13.54;92.16
70314;BME280;57725;47.526;18.986;2022-10-16T11:31:58;100630.59;;;13.54;92.20
70314;BME280;57725;47.526;18.986;2022-10-16T11:34:35;100629.72;;;13.54;92.17
70314;BME280;57725;47.526;18.986;2022-10-16T11:37:11;100625.34;;;13.54;92.17
70314;BME280;57725;47.526;18.986;2022-10-16T11:39:38;100620.94;;;13.55;92.12
70314;BME280;57725;47.526;18.986;2022-10-16T11:42:11;100624.34;;;13.57;92.05
70314;BME280;57725;47.526;18.986;2022-10-16T11:44:51;100629.69;;;13.55;92.04
70314;BME280;57725;47.526;18.986;2022-10-16T11:47:25;100634.00;;;13.56;92.07
70314;BME280;57725;47.526;18.986;2022-10-16T11:50:05;100625.22;;;13.57;92.07
70314;BME280;57725;47.526;18.986;2022-10-16T11:52:42;100624.34;;;13.57;92.22
70314;BME280;57725;47.526;18.986;2022-10-16T11:55:19;100620.81;;;13.58;92.07
70314;BME280;57725;47.526;18.986;2022-10-16T11:57:49;100623.44;;;13.58;92.14
70314;BME280;57725;47.526;18.986;2022-10-16T12:03:00;100616.41;;;13.58;92.14
70314;BME280;57725;47.526;18.986;2022-10-16T12:05:35;100618.97;;;13.60;91.97
70314;BME280;57725;47.526;18.986;2022-10-16T12:08:11;100605.91;;;13.58;92.17
70314;BME280;57725;47.526;18.986;2022-10-16T12:10:40;100612.88;;;13.59;92.10
70314;BME280;57725;47.526;18.986;2022-10-16T12:16:07;100611.63;;;14.07;81.67
70314;BME280;57725;47.526;18.986;2022-10-16T12:18:46;100606.78;;;14.17;84.37
70314;BME280;57725;47.526;18.986;2022-10-16T12:21:18;100606.91;;;14.32;85.56
70314;BME280;57725;47.526;18.986;2022-10-16T12:24:01;100607.28;;;14.43;86.44
70314;BME280;57725;47.526;18.986;2022-10-16T12:26:32;100605.75;;;14.39;85.48
70314;BME280;57725;47.526;18.986;2022-10-16T12:31:48;100601.28;;;14.21;87.39
70314;BME280;57725;47.526;18.986;2022-10-16T12:34:36;100600.03;;;14.11;87.99
70314;BME280;57725;47.526;18.986;2022-10-16T12:37:14;100600.44;;;14.02;88.47
70314;BME280;57725;47.526;18.986;2022-10-16T12:39:43;100600.72;;;13.96;89.12
70314;BME280;57725;47.526;18.986;2022-10-16T12:42:32;100605.34;;;13.91;89.45
70314;BME280;57725;47.526;18.986;2022-10-16T12:44:59;100602.91;;;13.86;89.54
70314;BME280;57725;47.526;18.986;2022-10-16T12:49:57;100613.63;;;13.82;89.92
70314;BME280;57725;47.526;18.986;2022-10-16T12:54:56;100609.34;;;13.79;90.47
70314;BME280;57725;47.526;18.986;2022-10-16T13:02:50;100612.97;;;13.76;90.77
70314;BME280;57725;47.526;18.986;2022-10-16T13:11:45;100613.88;;;13.75;90.83
70314;BME280;57725;47.526;18.986;2022-10-16T13:17:20;100617.38;;;13.76;90.86
70314;BME280;57725;47.526;18.986;2022-10-16T13:32:50;100624.41;;;13.75;91.19
70314;BME280;57725;47.526;18.986;2022-10-16T13:35:31;100627.03;;;13.75;91.16
70314;BME280;57725;47.526;18.986;2022-10-16T13:38:05;100619.16;;;13.75;90.99
70314;BME280;57725;47.526;18.986;2022-10-16T13:40:33;100620.00;;;13.76;91.26
70314;BME280;57725;47.526;18.986;2022-10-16T13:42:59;100617.38;;;13.76;91.21
70314;BME280;57725;47.526;18.986;2022-10-16T13:45:27;100615.66;;;13.75;91.24
70314;BME280;57725;47.526;18.986;2022-10-16T13:48:09;100612.97;;;13.76;91.15
70314;BME280;57725;47.526;18.986;2022-10-16T13:50:37;100625.69;;;14.06;82.58
70314;BME280;57725;47.526;18.986;2022-10-16T13:53:04;100622.69;;;14.32;80.04
70314;BME280;57725;47.526;18.986;2022-10-16T13:55:30;100625.44;;;14.49;79.84
70314;BME280;57725;47.526;18.986;2022-10-16T13:58:05;100629.91;;;14.47;81.95
70314;BME280;57725;47.526;18.986;2022-10-16T14:00:32;100632.06;;;14.39;83.92
70314;BME280;57725;47.526;18.986;2022-10-16T14:03:11;100632.47;;;14.30;85.16
70314;BME280;57725;47.526;18.986;2022-10-16T14:05:52;100633.72;;;14.22;85.88
70314;BME280;57725;47.526;18.986;2022-10-16T14:08:23;100624.47;;;14.13;86.64
70314;BME280;57725;47.526;18.986;2022-10-16T14:10:54;100632.66;;;14.07;87.51
70314;BME280;57725;47.526;18.986;2022-10-16T14:13:36;100630.22;;;14.02;87.77
70314;BME280;57725;47.526;18.986;2022-10-16T14:16:07;100635.59;;;13.99;88.16
70314;BME280;57725;47.526;18.986;2022-10-16T14:18:34;100627.03;;;13.96;88.49
70314;BME280;57725;47.526;18.986;2022-10-16T14:21:05;100622.75;;;13.93;88.70
70314;BME280;57725;47.526;18.986;2022-10-16T14:23:39;100626.28;;;13.92;89.13
70314;BME280;57725;47.526;18.986;2022-10-16T14:26:12;100629.00;;;13.91;89.24
70314;BME280;57725;47.526;18.986;2022-10-16T14:28:42;100624.66;;;13.90;89.45
70314;BME280;57725;47.526;18.986;2022-10-16T14:31:32;100630.81;;;13.89;89.48
70314;BME280;57725;47.526;18.986;2022-10-16T14:33:59;100628.25;;;13.87;89.48
70314;BME280;57725;47.526;18.986;2022-10-16T14:36:28;100625.69;;;13.86;89.72
70314;BME280;57725;47.526;18.986;2022-10-16T14:39:02;100630.88;;;13.87;89.85
70314;BME280;57725;47.526;18.986;2022-10-16T14:41:44;100632.66;;;13.87;90.00
70314;BME280;57725;47.526;18.986;2022-10-16T14:44:13;100636.16;;;13.87;90.14
70314;BME280;57725;47.526;18.986;2022-10-16T14:46:41;100640.53;;;13.87;89.99
70314;BME280;57725;47.526;18.986;2022-10-16T14:51:39;100637.91;;;13.87;90.12
70314;BME280;57725;47.526;18.986;2022-10-16T14:54:13;100641.47;;;13.86;90.26
70314;BME280;57725;47.526;18.986;2022-10-16T14:59:39;100637.91;;;13.87;90.24
70314;BME280;57725;47.526;18.986;2022-10-16T15:04:46;100630.03;;;13.87;90.25